sensor_id;sensor_type;location;lat;lon;timestamp;P1;durP1;ratioP1;P2;durP2;ratioP2
37937;SDS011;23763;48.130;11.602;2023-06-26T00:00:52;12.85;;;11.73;;
37937;SDS011;23763;48.130;11.602;2023-06-26T00:03:17;14.05;;;12.85;;
37937;SDS011;23763;48.130;11.602;2023-06-26T00:05:43;12.95;;;11.82;;
37937;SDS011;23763;48.130;11.602;2023-06-26T00:08:08;13.07;;;11.88;;
37937;SDS011;23763;48.130;11.602;2023-06-26T00:10:34;12.57;;;11.57;;
37937;SDS011;23763;48.130;11.602;2023-06-26T00:13:00;13.82;;;12.63;;
37937;SDS011;23763;48.130;11.602;2023-06-26T00:15:26;12.93;;;11.80;;
37937;SDS011;23763;48.130;11.602;2023-06-26T00:17:56;13.32;;;12.23;;
37937;SDS011;23763;48.130;11.602;2023-06-26T00:20:22;13.38;;;12.27;;
37937;SDS011;23763;48.130;11.602;2023-06-26T00:22:48;12.68;;;11.73;;
37937;SDS011;23763;48.130;11.602;2023-06-26T00:25:15;14.27;;;12.93;;
37937;SDS011;23763;48.130;11.602;2023-06-26T00:27:41;13.18;;;12.07;;
37937;SDS011;23763;48.130;11.602;2023-06-26T00:30:07;13.10;;;12.00;;
37937;SDS011;23763;48.130;11.602;2023-06-26T00:32:33;13.43;;;12.32;;
37937;SDS011;23763;48.130;11.602;2023-06-26T00:34:59;14.00;;;12.80;;
37937;SDS011;23763;48.130;11.602;2023-06-26T00:37:24;14.05;;;12.80;;
37937;SDS011;23763;48.130;11.602;2023-06-26T00:39:50;13.48;;;12.27;;
37937;SDS011;23763;48.130;11.602;2023-06-26T00:42:15;13.65;;;12.32;;
37937;SDS011;23763;48.130;11.602;2023-06-26T00:44:41;13.25;;;12.15;;
37937;SDS011;23763;48.130;11.602;2023-06-26T00:47:06;13.10;;;11.98;;
37937;SDS011;23763;48.130;11.602;2023-06-26T00:49:33;13.38;;;12.20;;
37937;SDS011;23763;48.130;11.602;2023-06-26T00:51:59;12.00;;;11.07;;
37937;SDS011;23763;48.130;11.602;2023-06-26T00:54:24;12.85;;;11.75;;
37937;SDS011;23763;48.130;11.602;2023-06-26T00:56:50;13.15;;;11.90;;
37937;SDS011;23763;48.130;11.602;2023-06-26T00:59:16;13.20;;;11.90;;
37937;SDS011;23763;48.130;11.602;2023-06-26T01:01:42;13.13;;;12.02;;
37937;SDS011;23763;48.130;11.602;2023-06-26T01:04:07;12.68;;;11.63;;
37937;SDS011;23763;48.130;11.602;2023-06-26T01:06:43;12.45;;;11.45;;
37937;SDS011;23763;48.130;11.602;2023-06-26T01:09:18;12.95;;;11.77;;
37937;SDS011;23763;48.130;11.602;2023-06-26T01:11:44;13.07;;;11.98;;
37937;SDS011;23763;48.130;11.602;2023-06-26T01:14:10;12.25;;;11.35;;
37937;SDS011;23763;48.130;11.602;2023-06-26T01:16:37;13.60;;;12.40;;
37937;SDS011;23763;48.130;11.602;2023-06-26T01:19:04;12.70;;;11.60;;
37937;SDS011;23763;48.130;11.602;2023-06-26T01:21:44;12.35;;;11.25;;
37937;SDS011;23763;48.130;11.602;2023-06-26T01:24:17;13.23;;;11.95;;
37937;SDS011;23763;48.130;11.602;2023-06-26T01:26:47;13.35;;;12.05;;
37937;SDS011;23763;48.130;11.602;2023-06-26T01:29:15;13.77;;;12.48;;
37937;SDS011;23763;48.130;11.602;2023-06-26T01:31:43;13.00;;;11.90;;
37937;SDS011;23763;48.130;11.602;2023-06-26T01:34:11;12.35;;;11.25;;
37937;SDS011;23763;48.130;11.602;2023-06-26T01:36:37;13.73;;;12.43;;
37937;SDS011;23763;48.130;11.602;2023-06-26T01:39:03;12.48;;;11.50;;
37937;SDS011;23763;48.130;11.602;2023-06-26T01:41:28;13.48;;;12.38;;
37937;SDS011;23763;48.130;11.602;2023-06-26T01:44:01;12.18;;;11.18;;
37937;SDS011;23763;48.130;11.602;2023-06-26T01:52:17;12.63;;;11.48;;
37937;SDS011;23763;48.130;11.602;2023-06-26T01:57:30;12.70;;;11.73;;
37937;SDS011;23763;48.130;11.602;2023-06-26T01:59:57;13.38;;;12.10;;
37937;SDS011;23763;48.130;11.602;2023-06-26T02:02:24;13.20;;;12.10;;
37937;SDS011;23763;48.130;11.602;2023-06-26T02:04:49;12.57;;;11.43;;
37937;SDS011;23763;48.130;11.602;2023-06-26T02:07:15;13.50;;;12.32;;
37937;SDS011;23763;48.130;11.602;2023-06-26T02:09:41;12.45;;;11.45;;
37937;SDS011;23763;48.130;11.602;2023-06-26T02:12:07;13.20;;;11.70;;
37937;SDS011;23763;48.130;11.602;2023-06-26T02:14:33;12.68;;;11.65;;
37937;SDS011;23763;48.130;11.602;2023-06-26T02:16:58;13.65;;;12.50;;
37937;SDS011;23763;48.130;11.602;2023-06-26T02:19:25;13.23;;;12.05;;
37937;SDS011;23763;48.130;11.602;2023-06-26T02:21:52;13.20;;;12.10;;
37937;SDS011;23763;48.130;11.602;2023-06-26T02:24:18;13.43;;;11.93;;
37937;SDS011;23763;48.130;11.602;2023-06-26T02:26:44;13.52;;;12.27;;
37937;SDS011;23763;48.130;11.602;2023-06-26T02:29:10;12.98;;;11.82;;
37937;SDS011;23763;48.130;11.602;2023-06-26T02:31:36;12.35;;;11.35;;
37937;SDS011;23763;48.130;11.602;2023-06-26T02:34:03;13.27;;;12.07;;
37937;SDS011;23763;48.130;11.602;2023-06-26T02:36:28;13.23;;;12.05;;
37937;SDS011;23763;48.130;11.602;2023-06-26T02:38:54;12.38;;;11.38;;
37937;SDS011;23763;48.130;11.602;2023-06-26T02:41:20;12.90;;;11.68;;
37937;SDS011;23763;48.130;11.602;2023-06-26T02:43:45;12.77;;;11.52;;
37937;SDS011;23763;48.130;11.602;2023-06-26T02:46:11;12.90;;;11.75;;
37937;SDS011;23763;48.130;11.602;2023-06-26T02:48:36;13.55;;;12.45;;
37937;SDS011;23763;48.130;11.602;2023-06-26T02:51:02;13.85;;;12.55;;
37937;SDS011;23763;48.130;11.602;2023-06-26T02:53:28;12.75;;;11.75;;
37937;SDS011;23763;48.130;11.602;2023-06-26T02:55:53;13.25;;;12.15;;
37937;SDS011;23763;48.130;11.602;2023-06-26T02:58:19;13.15;;;12.20;;
37937;SDS011;23763;48.130;11.602;2023-06-26T03:00:44;15.45;;;12.52;;
37937;SDS011;23763;48.130;11.602;2023-06-26T03:03:10;13.63;;;12.40;;
37937;SDS011;23763;48.130;11.602;2023-06-26T03:05:37;13.65;;;12.40;;
37937;SDS011;23763;48.130;11.602;2023-06-26T03:08:03;13.02;;;11.82;;
37937;SDS011;23763;48.130;11.602;2023-06-26T03:10:29;13.35;;;12.25;;
37937;SDS011;23763;48.130;11.602;2023-06-26T03:12:54;12.93;;;11.75;;
37937;SDS011;23763;48.130;11.602;2023-06-26T03:15:20;12.88;;;11.80;;
37937;SDS011;23763;48.130;11.602;2023-06-26T03:17:46;13.20;;;12.10;;
37937;SDS011;23763;48.130;11.602;2023-06-26T03:20:11;13.00;;;11.82;;
37937;SDS011;23763;48.130;11.602;2023-06-26T03:22:37;13.02;;;11.70;;
37937;SDS011;23763;48.130;11.602;2023-06-26T03:25:02;13.48;;;12.30;;
37937;SDS011;23763;48.130;11.602;2023-06-26T03:27:29;13.70;;;12.50;;
37937;SDS011;23763;48.130;11.602;2023-06-26T03:29:55;13.63;;;12.27;;
37937;SDS011;23763;48.130;11.602;2023-06-26T03:32:21;13.13;;;11.93;;
37937;SDS011;23763;48.130;11.602;2023-06-26T03:34:46;13.02;;;11.88;;
37937;SDS011;23763;48.130;11.602;2023-06-26T03:37:12;12.13;;;11.23;;
37937;SDS011;23763;48.130;11.602;2023-06-26T03:39:38;13.55;;;12.30;;
37937;SDS011;23763;48.130;11.602;2023-06-26T03:42:03;12.70;;;11.60;;
37937;SDS011;23763;48.130;11.602;2023-06-26T03:44:29;12.95;;;11.95;;
37937;SDS011;23763;48.130;11.602;2023-06-26T03:46:55;13.70;;;12.48;;
37937;SDS011;23763;48.130;11.602;2023-06-26T03:49:20;13.50;;;12.35;;
37937;SDS011;23763;48.130;11.602;2023-06-26T03:51:46;13.02;;;11.82;;
37937;SDS011;23763;48.130;11.602;2023-06-26T03:54:12;14.27;;;12.82;;
37937;SDS011;23763;48.130;11.602;2023-06-26T03:56:37;12.98;;;11.77;;
37937;SDS011;23763;48.130;11.602;2023-06-26T03:59:03;13.75;;;12.43;;
37937;SDS011;23763;48.130;11.602;2023-06-26T04:01:29;14.02;;;12.73;;
37937;SDS011;23763;48.130;11.602;2023-06-26T04:03:54;13.45;;;12.30;;
37937;SDS011;23763;48.130;11.602;2023-06-26T04:06:23;13.20;;;11.80;;
37937;SDS011;23763;48.130;11.602;2023-06-26T04:08:48;13.73;;;12.57;;
37937;SDS011;23763;48.130;11.602;2023-06-26T04:11:14;13.27;;;12.07;;
37937;SDS011;23763;48.130;11.602;2023-06-26T04:22:59;13.82;;;12.48;;
37937;SDS011;23763;48.130;11.602;2023-06-26T04:25:24;13.85;;;12.55;;
37937;SDS011;23763;48.130;11.602;2023-06-26T04:27:54;13.40;;;12.20;;
37937;SDS011;23763;48.130;11.602;2023-06-26T04:30:19;14.15;;;12.95;;
37937;SDS011;23763;48.130;11.602;2023-06-26T04:32:45;14.07;;;12.88;;
37937;SDS011;23763;48.130;11.602;2023-06-26T04:35:10;14.30;;;13.10;;
37937;SDS011;23763;48.130;11.602;2023-06-26T04:37:36;13.88;;;12.48;;
37937;SDS011;23763;48.130;11.602;2023-06-26T04:40:02;13.23;;;12.23;;
37937;SDS011;23763;48.130;11.602;2023-06-26T04:42:29;13.45;;;12.20;;
37937;SDS011;23763;48.130;11.602;2023-06-26T04:44:54;14.32;;;13.07;;
37937;SDS011;23763;48.130;11.602;2023-06-26T04:47:20;14.02;;;12.82;;
37937;SDS011;23763;48.130;11.602;2023-06-26T04:49:45;14.05;;;12.85;;
37937;SDS011;23763;48.130;11.602;2023-06-26T04:52:11;13.55;;;12.45;;
37937;SDS011;23763;48.130;11.602;2023-06-26T04:54:40;14.43;;;13.13;;
37937;SDS011;23763;48.130;11.602;2023-06-26T04:57:05;14.55;;;13.15;;
37937;SDS011;23763;48.130;11.602;2023-06-26T04:59:31;13.40;;;12.30;;
37937;SDS011;23763;48.130;11.602;2023-06-26T05:01:57;13.77;;;12.57;;
37937;SDS011;23763;48.130;11.602;2023-06-26T05:04:22;14.63;;;12.95;;
37937;SDS011;23763;48.130;11.602;2023-06-26T05:06:48;15.20;;;13.88;;
37937;SDS011;23763;48.130;11.602;2023-06-26T05:09:14;14.63;;;13.32;;
37937;SDS011;23763;48.130;11.602;2023-06-26T05:11:39;14.32;;;12.93;;
37937;SDS011;23763;48.130;11.602;2023-06-26T05:14:05;13.90;;;12.60;;
37937;SDS011;23763;48.130;11.602;2023-06-26T05:16:34;14.55;;;12.90;;
37937;SDS011;23763;48.130;11.602;2023-06-26T05:19:00;13.73;;;12.68;;
37937;SDS011;23763;48.130;11.602;2023-06-26T05:21:27;14.15;;;12.98;;
37937;SDS011;23763;48.130;11.602;2023-06-26T05:23:52;13.85;;;12.75;;
37937;SDS011;23763;48.130;11.602;2023-06-26T05:26:22;13.95;;;12.77;;
37937;SDS011;23763;48.130;11.602;2023-06-26T05:28:51;14.07;;;12.60;;
37937;SDS011;23763;48.130;11.602;2023-06-26T05:31:16;13.60;;;12.50;;
37937;SDS011;23763;48.130;11.602;2023-06-26T05:33:44;14.35;;;13.15;;
37937;SDS011;23763;48.130;11.602;2023-06-26T05:36:11;13.75;;;12.43;;
37937;SDS011;23763;48.130;11.602;2023-06-26T05:38:38;15.35;;;13.05;;
37937;SDS011;23763;48.130;11.602;2023-06-26T05:41:04;14.15;;;13.07;;
37937;SDS011;23763;48.130;11.602;2023-06-26T05:43:30;14.75;;;13.23;;
37937;SDS011;23763;48.130;11.602;2023-06-26T05:45:56;13.90;;;12.70;;
37937;SDS011;23763;48.130;11.602;2023-06-26T05:48:23;13.98;;;12.68;;
37937;SDS011;23763;48.130;11.602;2023-06-26T05:50:48;14.38;;;13.25;;
37937;SDS011;23763;48.130;11.602;2023-06-26T05:53:14;13.95;;;12.68;;
37937;SDS011;23763;48.130;11.602;2023-06-26T05:55:40;14.75;;;13.40;;
37937;SDS011;23763;48.130;11.602;2023-06-26T05:58:07;14.27;;;12.93;;
37937;SDS011;23763;48.130;11.602;2023-06-26T06:00:35;15.00;;;13.48;;
37937;SDS011;23763;48.130;11.602;2023-06-26T06:03:01;13.73;;;12.63;;
37937;SDS011;23763;48.130;11.602;2023-06-26T06:05:27;13.88;;;12.77;;
37937;SDS011;23763;48.130;11.602;2023-06-26T06:07:53;13.43;;;12.40;;
37937;SDS011;23763;48.130;11.602;2023-06-26T06:10:18;14.57;;;13.18;;
37937;SDS011;23763;48.130;11.602;2023-06-26T06:12:44;14.75;;;13.65;;
37937;SDS011;23763;48.130;11.602;2023-06-26T06:15:09;15.05;;;13.68;;
37937;SDS011;23763;48.130;11.602;2023-06-26T06:17:35;14.93;;;13.80;;
37937;SDS011;23763;48.130;11.602;2023-06-26T06:20:00;14.88;;;13.65;;
37937;SDS011;23763;48.130;11.602;2023-06-26T06:22:26;15.23;;;13.88;;
37937;SDS011;23763;48.130;11.602;2023-06-26T06:24:52;15.48;;;14.10;;
37937;SDS011;23763;48.130;11.602;2023-06-26T06:27:17;15.18;;;13.98;;
37937;SDS011;23763;48.130;11.602;2023-06-26T06:29:43;15.57;;;14.45;;
37937;SDS011;23763;48.130;11.602;2023-06-26T06:32:08;14.38;;;13.30;;
37937;SDS011;23763;48.130;11.602;2023-06-26T06:34:34;15.52;;;14.18;;
37937;SDS011;23763;48.130;11.602;2023-06-26T06:37:00;16.70;;;15.20;;
37937;SDS011;23763;48.130;11.602;2023-06-26T06:39:25;16.63;;;15.07;;
37937;SDS011;23763;48.130;11.602;2023-06-26T06:41:51;14.80;;;13.50;;
37937;SDS011;23763;48.130;11.602;2023-06-26T06:44:16;14.80;;;13.30;;
37937;SDS011;23763;48.130;11.602;2023-06-26T06:46:42;14.75;;;13.60;;
37937;SDS011;23763;48.130;11.602;2023-06-26T06:49:08;17.63;;;16.23;;
37937;SDS011;23763;48.130;11.602;2023-06-26T06:51:34;15.02;;;13.90;;
37937;SDS011;23763;48.130;11.602;2023-06-26T06:53:59;14.85;;;13.65;;
37937;SDS011;23763;48.130;11.602;2023-06-26T06:56:25;15.00;;;13.70;;
37937;SDS011;23763;48.130;11.602;2023-06-26T06:58:51;14.13;;;13.07;;
37937;SDS011;23763;48.130;11.602;2023-06-26T07:01:16;14.43;;;13.20;;
37937;SDS011;23763;48.130;11.602;2023-06-26T07:03:42;14.02;;;12.48;;
37937;SDS011;23763;48.130;11.602;2023-06-26T07:06:08;14.38;;;13.38;;
37937;SDS011;23763;48.130;11.602;2023-06-26T07:08:33;12.95;;;12.05;;
37937;SDS011;23763;48.130;11.602;2023-06-26T07:10:59;13.02;;;12.13;;
37937;SDS011;23763;48.130;11.602;2023-06-26T07:13:25;13.02;;;12.20;;
37937;SDS011;23763;48.130;11.602;2023-06-26T07:15:50;15.18;;;13.68;;
37937;SDS011;23763;48.130;11.602;2023-06-26T07:18:16;13.70;;;12.70;;
37937;SDS011;23763;48.130;11.602;2023-06-26T07:20:41;12.95;;;11.98;;
37937;SDS011;23763;48.130;11.602;2023-06-26T07:23:07;13.05;;;12.15;;
37937;SDS011;23763;48.130;11.602;2023-06-26T07:25:33;13.88;;;12.60;;
37937;SDS011;23763;48.130;11.602;2023-06-26T07:27:59;13.07;;;11.98;;
37937;SDS011;23763;48.130;11.602;2023-06-26T07:30:24;13.60;;;12.40;;
37937;SDS011;23763;48.130;11.602;2023-06-26T07:32:50;12.90;;;11.90;;
37937;SDS011;23763;48.130;11.602;2023-06-26T07:35:16;12.18;;;11.32;;
37937;SDS011;23763;48.130;11.602;2023-06-26T07:37:42;12.93;;;11.82;;
37937;SDS011;23763;48.130;11.602;2023-06-26T07:40:08;13.40;;;12.32;;
37937;SDS011;23763;48.130;11.602;2023-06-26T07:42:34;12.48;;;11.50;;
37937;SDS011;23763;48.130;11.602;2023-06-26T07:45:00;12.52;;;11.63;;
37937;SDS011;23763;48.130;11.602;2023-06-26T07:47:25;12.27;;;11.48;;
37937;SDS011;23763;48.130;11.602;2023-06-26T07:49:51;12.25;;;11.45;;
37937;SDS011;23763;48.130;11.602;2023-06-26T07:52:18;13.00;;;12.00;;
37937;SDS011;23763;48.130;11.602;2023-06-26T07:54:44;12.48;;;11.32;;
37937;SDS011;23763;48.130;11.602;2023-06-26T07:57:09;13.05;;;12.25;;
37937;SDS011;23763;48.130;11.602;2023-06-26T07:59:36;12.45;;;11.55;;
37937;SDS011;23763;48.130;11.602;2023-06-26T08:02:02;12.50;;;11.43;;
37937;SDS011;23763;48.130;11.602;2023-06-26T08:04:28;13.52;;;12.25;;
37937;SDS011;23763;48.130;11.602;2023-06-26T08:06:57;12.85;;;11.85;;
37937;SDS011;23763;48.130;11.602;2023-06-26T08:09:25;13.07;;;11.98;;
37937;SDS011;23763;48.130;11.602;2023-06-26T08:11:52;12.65;;;11.55;;
37937;SDS011;23763;48.130;11.602;2023-06-26T08:14:18;13.07;;;12.07;;
37937;SDS011;23763;48.130;11.602;2023-06-26T08:16:44;14.63;;;13.13;;
37937;SDS011;23763;48.130;11.602;2023-06-26T08:19:11;13.50;;;12.40;;
37937;SDS011;23763;48.130;11.602;2023-06-26T08:21:37;12.88;;;11.88;;
37937;SDS011;23763;48.130;11.602;2023-06-26T08:24:03;13.20;;;12.18;;
37937;SDS011;23763;48.130;11.602;2023-06-26T08:26:28;13.18;;;12.27;;
37937;SDS011;23763;48.130;11.602;2023-06-26T08:28:54;13.00;;;12.20;;
37937;SDS011;23763;48.130;11.602;2023-06-26T08:31:20;13.07;;;12.13;;
37937;SDS011;23763;48.130;11.602;2023-06-26T08:33:45;14.18;;;13.18;;
37937;SDS011;23763;48.130;11.602;2023-06-26T08:36:11;12.15;;;11.35;;
37937;SDS011;23763;48.130;11.602;2023-06-26T08:38:37;12.20;;;11.45;;
37937;SDS011;23763;48.130;11.602;2023-06-26T08:41:05;12.70;;;11.95;;
37937;SDS011;23763;48.130;11.602;2023-06-26T08:43:31;12.63;;;11.77;;
37937;SDS011;23763;48.130;11.602;2023-06-26T08:45:57;12.98;;;11.93;;
37937;SDS011;23763;48.130;11.602;2023-06-26T08:48:23;12.38;;;11.63;;
37937;SDS011;23763;48.130;11.602;2023-06-26T08:50:49;12.23;;;11.40;;
37937;SDS011;23763;48.130;11.602;2023-06-26T08:56:02;12.90;;;12.00;;
37937;SDS011;23763;48.130;11.602;2023-06-26T08:58:28;13.60;;;12.40;;
37937;SDS011;23763;48.130;11.602;2023-06-26T09:00:53;12.68;;;11.75;;
37937;SDS011;23763;48.130;11.602;2023-06-26T09:03:21;13.45;;;12.27;;
37937;SDS011;23763;48.130;11.602;2023-06-26T09:05:47;11.95;;;11.15;;
37937;SDS011;23763;48.130;11.602;2023-06-26T09:08:13;11.80;;;11.00;;
37937;SDS011;23763;48.130;11.602;2023-06-26T09:10:39;13.20;;;12.20;;
37937;SDS011;23763;48.130;11.602;2023-06-26T09:13:05;12.40;;;11.63;;
37937;SDS011;23763;48.130;11.602;2023-06-26T09:15:52;12.75;;;11.65;;
37937;SDS011;23763;48.130;11.602;2023-06-26T09:18:18;13.23;;;12.13;;
37937;SDS011;23763;48.130;11.602;2023-06-26T09:20:44;12.65;;;11.40;;
37937;SDS011;23763;48.130;11.602;2023-06-26T09:23:10;12.15;;;11.00;;
37937;SDS011;23763;48.130;11.602;2023-06-26T09:25:37;12.35;;;11.50;;
37937;SDS011;23763;48.130;11.602;2023-06-26T09:28:04;12.10;;;11.23;;
37937;SDS011;23763;48.130;11.602;2023-06-26T09:30:31;12.65;;;11.75;;
37937;SDS011;23763;48.130;11.602;2023-06-26T09:32:57;12.50;;;11.40;;
37937;SDS011;23763;48.130;11.602;2023-06-26T09:35:37;12.70;;;11.73;;
37937;SDS011;23763;48.130;11.602;2023-06-26T09:38:03;11.80;;;10.95;;
37937;SDS011;23763;48.130;11.602;2023-06-26T09:40:28;12.20;;;11.30;;
37937;SDS011;23763;48.130;11.602;2023-06-26T09:42:56;12.40;;;11.43;;
37937;SDS011;23763;48.130;11.602;2023-06-26T09:45:28;11.85;;;11.05;;
37937;SDS011;23763;48.130;11.602;2023-06-26T09:47:53;12.48;;;11.43;;
37937;SDS011;23763;48.130;11.602;2023-06-26T09:50:23;11.77;;;10.75;;
37937;SDS011;23763;48.130;11.602;2023-06-26T09:52:51;11.88;;;10.98;;
37937;SDS011;23763;48.130;11.602;2023-06-26T09:55:17;12.23;;;11.32;;
37937;SDS011;23763;48.130;11.602;2023-06-26T09:57:46;11.32;;;10.52;;
37937;SDS011;23763;48.130;11.602;2023-06-26T10:00:13;11.10;;;10.32;;
37937;SDS011;23763;48.130;11.602;2023-06-26T10:02:39;10.68;;;9.98;;
37937;SDS011;23763;48.130;11.602;2023-06-26T10:05:05;11.38;;;10.35;;
37937;SDS011;23763;48.130;11.602;2023-06-26T10:07:30;11.27;;;10.00;;
37937;SDS011;23763;48.130;11.602;2023-06-26T10:09:56;10.82;;;10.13;;
37937;SDS011;23763;48.130;11.602;2023-06-26T10:12:25;10.90;;;10.02;;
37937;SDS011;23763;48.130;11.602;2023-06-26T10:14:53;10.85;;;10.05;;
37937;SDS011;23763;48.130;11.602;2023-06-26T10:17:20;10.57;;;9.85;;
37937;SDS011;23763;48.130;11.602;2023-06-26T10:19:46;10.73;;;9.93;;
37937;SDS011;23763;48.130;11.602;2023-06-26T10:22:15;11.50;;;10.48;;
37937;SDS011;23763;48.130;11.602;2023-06-26T10:24:42;12.55;;;11.32;;
37937;SDS011;23763;48.130;11.602;2023-06-26T10:29:39;10.63;;;9.82;;
37937;SDS011;23763;48.130;11.602;2023-06-26T10:32:06;10.82;;;9.88;;
37937;SDS011;23763;48.130;11.602;2023-06-26T10:34:32;10.13;;;9.23;;
37937;SDS011;23763;48.130;11.602;2023-06-26T10:37:00;11.18;;;9.60;;
37937;SDS011;23763;48.130;11.602;2023-06-26T10:39:31;11.70;;;10.77;;
37937;SDS011;23763;48.130;11.602;2023-06-26T10:42:15;11.23;;;10.13;;
37937;SDS011;23763;48.130;11.602;2023-06-26T10:44:45;11.15;;;10.00;;
37937;SDS011;23763;48.130;11.602;2023-06-26T10:47:11;12.25;;;10.95;;
37937;SDS011;23763;48.130;11.602;2023-06-26T10:52:43;11.02;;;10.13;;
37937;SDS011;23763;48.130;11.602;2023-06-26T10:55:09;10.85;;;9.93;;
37937;SDS011;23763;48.130;11.602;2023-06-26T10:57:35;11.52;;;10.73;;
37937;SDS011;23763;48.130;11.602;2023-06-26T11:00:10;11.00;;;10.30;;
37937;SDS011;23763;48.130;11.602;2023-06-26T11:02:49;10.93;;;9.98;;
37937;SDS011;23763;48.130;11.602;2023-06-26T11:08:10;10.00;;;9.30;;
37937;SDS011;23763;48.130;11.602;2023-06-26T11:10:53;10.52;;;9.82;;
37937;SDS011;23763;48.130;11.602;2023-06-26T11:13:21;10.82;;;9.88;;
37937;SDS011;23763;48.130;11.602;2023-06-26T11:15:47;10.38;;;9.68;;
37937;SDS011;23763;48.130;11.602;2023-06-26T11:18:14;11.30;;;10.32;;
37937;SDS011;23763;48.130;11.602;2023-06-26T11:20:40;11.25;;;10.45;;
37937;SDS011;23763;48.130;11.602;2023-06-26T11:23:06;10.70;;;9.80;;
37937;SDS011;23763;48.130;11.602;2023-06-26T11:25:34;10.38;;;9.65;;
37937;SDS011;23763;48.130;11.602;2023-06-26T11:28:00;10.45;;;9.73;;
37937;SDS011;23763;48.130;11.602;2023-06-26T11:30:26;11.45;;;10.65;;
37937;SDS011;23763;48.130;11.602;2023-06-26T11:32:52;10.55;;;9.52;;
37937;SDS011;23763;48.130;11.602;2023-06-26T11:35:24;10.32;;;9.57;;
37937;SDS011;23763;48.130;11.602;2023-06-26T11:37:55;10.75;;;10.05;;
37937;SDS011;23763;48.130;11.602;2023-06-26T11:40:22;11.15;;;10.20;;
37937;SDS011;23763;48.130;11.602;2023-06-26T11:42:52;11.27;;;10.30;;
37937;SDS011;23763;48.130;11.602;2023-06-26T11:45:19;11.52;;;10.70;;
37937;SDS011;23763;48.130;11.602;2023-06-26T11:47:45;11.50;;;10.25;;
37937;SDS011;23763;48.130;11.602;2023-06-26T11:50:19;11.38;;;10.35;;
37937;SDS011;23763;48.130;11.602;2023-06-26T11:52:45;11.60;;;10.70;;
37937;SDS011;23763;48.130;11.602;2023-06-26T11:55:17;11.23;;;10.15;;
37937;SDS011;23763;48.130;11.602;2023-06-26T11:57:47;11.43;;;10.63;;
37937;SDS011;23763;48.130;11.602;2023-06-26T12:00:14;11.40;;;10.50;;
37937;SDS011;23763;48.130;11.602;2023-06-26T12:02:41;11.85;;;10.85;;
37937;SDS011;23763;48.130;11.602;2023-06-26T12:05:08;11.43;;;10.52;;
37937;SDS011;23763;48.130;11.602;2023-06-26T12:07:34;12.60;;;11.52;;
37937;SDS011;23763;48.130;11.602;2023-06-26T12:10:02;12.25;;;11.07;;
37937;SDS011;23763;48.130;11.602;2023-06-26T12:12:29;11.52;;;10.75;;
37937;SDS011;23763;48.130;11.602;2023-06-26T12:14:56;11.65;;;10.63;;
37937;SDS011;23763;48.130;11.602;2023-06-26T12:17:23;11.45;;;10.38;;
37937;SDS011;23763;48.130;11.602;2023-06-26T12:19:51;11.55;;;10.65;;
37937;SDS011;23763;48.130;11.602;2023-06-26T12:22:18;11.50;;;10.60;;
37937;SDS011;23763;48.130;11.602;2023-06-26T12:24:44;12.43;;;11.45;;
37937;SDS011;23763;48.130;11.602;2023-06-26T12:27:14;11.82;;;10.70;;
37937;SDS011;23763;48.130;11.602;2023-06-26T12:29:46;11.85;;;10.82;;
37937;SDS011;23763;48.130;11.602;2023-06-26T12:32:16;11.75;;;10.68;;
37937;SDS011;23763;48.130;11.602;2023-06-26T12:34:46;11.38;;;10.38;;
37937;SDS011;23763;48.130;11.602;2023-06-26T12:37:13;12.23;;;11.43;;
37937;SDS011;23763;48.130;11.602;2023-06-26T12:42:24;12.65;;;11.65;;
37937;SDS011;23763;48.130;11.602;2023-06-26T12:44:51;11.73;;;10.82;;
37937;SDS011;23763;48.130;11.602;2023-06-26T12:47:19;11.85;;;10.85;;
37937;SDS011;23763;48.130;11.602;2023-06-26T12:49:51;11.85;;;11.05;;
37937;SDS011;23763;48.130;11.602;2023-06-26T12:52:17;12.10;;;10.88;;
37937;SDS011;23763;48.130;11.602;2023-06-26T12:54:46;15.65;;;11.90;;
37937;SDS011;23763;48.130;11.602;2023-06-26T12:57:17;11.73;;;10.85;;
37937;SDS011;23763;48.130;11.602;2023-06-26T12:59:42;12.23;;;11.13;;
37937;SDS011;23763;48.130;11.602;2023-06-26T13:02:08;12.23;;;11.32;;
37937;SDS011;23763;48.130;11.602;2023-06-26T13:04:36;11.88;;;10.98;;
37937;SDS011;23763;48.130;11.602;2023-06-26T13:07:04;12.05;;;11.15;;
37937;SDS011;23763;48.130;11.602;2023-06-26T13:09:31;12.32;;;11.23;;
37937;SDS011;23763;48.130;11.602;2023-06-26T13:11:58;12.18;;;11.23;;
37937;SDS011;23763;48.130;11.602;2023-06-26T13:14:24;13.40;;;12.27;;
37937;SDS011;23763;48.130;11.602;2023-06-26T13:16:49;12.65;;;11.68;;
37937;SDS011;23763;48.130;11.602;2023-06-26T13:19:15;12.05;;;11.13;;
37937;SDS011;23763;48.130;11.602;2023-06-26T13:21:41;12.15;;;11.25;;
37937;SDS011;23763;48.130;11.602;2023-06-26T13:24:07;11.75;;;10.77;;
37937;SDS011;23763;48.130;11.602;2023-06-26T13:26:32;12.55;;;11.40;;
37937;SDS011;23763;48.130;11.602;2023-06-26T13:28:58;12.90;;;11.75;;
37937;SDS011;23763;48.130;11.602;2023-06-26T13:31:24;12.45;;;11.45;;
37937;SDS011;23763;48.130;11.602;2023-06-26T13:33:50;13.35;;;12.15;;
37937;SDS011;23763;48.130;11.602;2023-06-26T13:36:17;12.93;;;11.80;;
37937;SDS011;23763;48.130;11.602;2023-06-26T13:38:43;12.98;;;12.05;;
37937;SDS011;23763;48.130;11.602;2023-06-26T13:41:09;13.77;;;12.77;;
37937;SDS011;23763;48.130;11.602;2023-06-26T13:43:34;12.68;;;11.68;;
37937;SDS011;23763;48.130;11.602;2023-06-26T13:46:00;13.20;;;12.15;;
37937;SDS011;23763;48.130;11.602;2023-06-26T13:48:26;13.38;;;12.25;;
37937;SDS011;23763;48.130;11.602;2023-06-26T13:50:52;12.63;;;11.73;;
37937;SDS011;23763;48.130;11.602;2023-06-26T13:53:18;12.73;;;11.63;;
37937;SDS011;23763;48.130;11.602;2023-06-26T13:55:44;13.07;;;12.20;;
37937;SDS011;23763;48.130;11.602;2023-06-26T13:58:10;13.80;;;12.75;;
37937;SDS011;23763;48.130;11.602;2023-06-26T14:00:36;14.90;;;12.95;;
37937;SDS011;23763;48.130;11.602;2023-06-26T14:03:05;12.82;;;11.68;;
37937;SDS011;23763;48.130;11.602;2023-06-26T14:05:34;11.98;;;11.07;;
37937;SDS011;23763;48.130;11.602;2023-06-26T14:08:04;13.43;;;12.43;;
37937;SDS011;23763;48.130;11.602;2023-06-26T14:10:30;14.02;;;12.82;;
37937;SDS011;23763;48.130;11.602;2023-06-26T14:12:58;15.25;;;13.93;;
37937;SDS011;23763;48.130;11.602;2023-06-26T14:15:24;14.43;;;13.23;;
37937;SDS011;23763;48.130;11.602;2023-06-26T14:17:49;14.55;;;13.27;;
37937;SDS011;23763;48.130;11.602;2023-06-26T14:20:16;13.63;;;12.52;;
37937;SDS011;23763;48.130;11.602;2023-06-26T14:22:42;15.00;;;13.32;;
37937;SDS011;23763;48.130;11.602;2023-06-26T14:25:11;13.40;;;12.40;;
37937;SDS011;23763;48.130;11.602;2023-06-26T14:27:38;12.85;;;11.85;;
37937;SDS011;23763;48.130;11.602;2023-06-26T14:30:04;12.93;;;11.77;;
37937;SDS011;23763;48.130;11.602;2023-06-26T14:32:31;12.93;;;11.93;;
37937;SDS011;23763;48.130;11.602;2023-06-26T14:34:56;12.82;;;11.85;;
37937;SDS011;23763;48.130;11.602;2023-06-26T14:37:22;13.60;;;12.27;;